Time,TemperatureF,DewpointF,PressureIn,WindDirection,WindDirectionDegrees,WindSpeedMPH,WindSpeedGustMPH,Humidity,HourlyPrecipIn,Conditions,Clouds,dailyrainin,SoftwareType,DateUTC
2013-09-06 00:00:00,78.1,76.2,30.06,South,188,0.0,0.0,94,0.00, ,,-99.99,VWS V12.07,2013-09-06 04:00:00,
2013-09-06 00:01:00,78.0,76.1,30.06,South,188,0.0,0.0,94,0.00, ,,-99.99,VWS V12.07,2013-09-06 04:01:00,
2013-09-06 00:04:00,78.1,76.2,30.06,South,188,0.0,0.0,94,0.00, ,,-99.99,VWS V12.07,2013-09-06 04:04:00,
2013-09-06 00:05:00,77.9,76.0,30.06,South,188,0.0,0.0,94,0.00, ,,-99.99,VWS V12.07,2013-09-06 04:05:00,
2013-09-06 00:08:00,77.9,75.9,30.06,South,188,0.0,0.0,94,0.00, ,,-99.99,VWS V12.07,2013-09-06 04:08:00,
2013-09-06 00:13:00,77.8,75.8,30.06,South,188,0.0,0.0,94,0.00, ,,-99.99,VWS V12.07,2013-09-06 04:13:00,
2013-09-06 00:18:00,77.4,75.4,30.06,South,188,0.0,0.0,94,0.00, ,,-99.99,VWS V12.07,2013-09-06 04:18:00,
2013-09-06 00:20:00,77.5,75.6,30.06,South,188,0.0,0.0,94,0.00, ,,-99.99,VWS V12.07,2013-09-06 04:20:00,
2013-09-06 00:25:00,77.9,76.0,30.06,South,188,0.0,0.0,94,0.00, ,,-99.99,VWS V12.07,2013-09-06 04:25:00,
2013-09-06 00:30:00,78.2,76.3,30.06,South,188,0.0,0.0,94,0.00, ,,-99.99,VWS V12.07,2013-09-06 04:30:00,
2013-09-06 00:35:00,78.3,76.4,30.06,South,188,0.0,0.0,94,0.00, ,,-99.99,VWS V12.07,2013-09-06 04:35:00,
2013-09-06 00:40:00,77.9,75.9,30.06,South,188,0.0,0.0,94,0.00, ,,-99.99,VWS V12.07,2013-09-06 04:40:00,
2013-09-06 00:45:00,77.9,76.0,30.06,South,188,0.0,0.0,94,0.00, ,,-99.99,VWS V12.07,2013-09-06 04:45:00,
2013-09-06 00:50:00,78.0,76.1,30.06,South,188,0.0,0.0,94,0.00, ,,-99.99,VWS V12.07,2013-09-06 04:50:00,
2013-09-06 00:55:00,78.0,76.0,30.06,South,188,0.0,0.0,94,0.00, ,,-99.99,VWS V12.07,2013-09-06 04:55:00,
2013-09-06 01:00:00,77.5,75.7,30.06,South,188,0.0,0.0,94,0.00, ,,-99.99,VWS V12.07,2013-09-06 05:00:00,
2013-09-06 01:05:00,78.4,76.7,30.07,South,188,0.0,0.0,95,0.00, ,,-99.99,VWS V12.07,2013-09-06 05:05:00,
2013-09-06 01:10:00,78.0,76.2,30.07,South,188,0.0,0.0,94,0.00, ,,-99.99,VWS V12.07,2013-09-06 05:10:00,
2013-09-06 01:15:00,77.5,75.8,30.07,South,188,0.0,0.0,94,0.00, ,,-99.99,VWS V12.07,2013-09-06 05:15:00,
2013-09-06 01:20:00,77.3,75.6,30.07,South,188,0.0,0.0,94,0.00, ,,-99.99,VWS V12.07,2013-09-06 05:20:00,
2013-09-06 01:25:00,77.1,75.5,30.07,South,188,0.0,0.0,95,0.00, ,,-99.99,VWS V12.07,2013-09-06 05:25:00,
2013-09-06 01:30:00,77.0,75.3,30.07,South,188,0.0,0.0,95,0.00, ,,-99.99,VWS V12.07,2013-09-06 05:30:00,
2013-09-06 01:35:00,76.7,75.1,30.07,South,188,0.0,0.0,95,0.00, ,,-99.99,VWS V12.07,2013-09-06 05:35:00,
2013-09-06 01:40:00,76.8,75.2,30.07,South,188,0.0,0.0,95,0.00, ,,-99.99,VWS V12.07,2013-09-06 05:40:00,
2013-09-06 01:45:00,75.9,74.3,30.06,South,188,0.0,0.0,95,0.00, ,,-99.99,VWS V12.07,2013-09-06 05:45:00,
2013-09-06 01:50:00,76.4,74.8,30.06,South,188,0.0,0.0,95,0.00, ,,-99.99,VWS V12.07,2013-09-06 05:50:00,
2013-09-06 01:55:00,76.4,74.9,30.06,South,188,0.0,0.0,95,0.00, ,,-99.99,VWS V12.07,2013-09-06 05:55:00,
2013-09-06 02:01:00,76.4,74.9,30.06,South,188,0.0,0.0,95,0.00, ,,-99.99,VWS V12.07,2013-09-06 06:01:00,
2013-09-06 02:06:00,76.7,75.2,30.05,South,188,0.0,0.0,95,0.00, ,,-99.99,VWS V12.07,2013-09-06 06:06:00,
2013-09-06 02:11:00,76.4,74.9,30.05,South,188,0.0,0.0,95,0.00, ,,-99.99,VWS V12.07,2013-09-06 06:11:00,
2013-09-06 02:16:00,76.3,74.8,30.05,South,188,0.0,0.0,95,0.00, ,,-99.99,VWS V12.07,2013-09-06 06:16:00,
2013-09-06 02:21:00,76.4,74.9,30.05,South,188,0.0,0.0,95,0.00, ,,-99.99,VWS V12.07,2013-09-06 06:21:00,
2013-09-06 02:26:00,76.3,74.8,30.05,South,188,0.0,0.0,95,0.00, ,,-99.99,VWS V12.07,2013-09-06 06:26:00,
2013-09-06 02:31:00,76.2,74.8,30.05,NNW,336,0.0,5.7,95,0.00, ,,-99.99,VWS V12.07,2013-09-06 06:31:00,
2013-09-06 02:36:00,76.1,74.6,30.05,NNW,336,0.0,5.7,95,0.00, ,,-99.99,VWS V12.07,2013-09-06 06:36:00,
2013-09-06 02:41:00,76.1,74.7,30.05,NNW,340,0.0,0.0,96,0.00, ,,-99.99,VWS V12.07,2013-09-06 06:41:00,
2013-09-06 02:46:00,75.6,74.3,30.05,NNW,340,0.0,0.0,96,0.00, ,,-99.99,VWS V12.07,2013-09-06 06:46:00,
2013-09-06 02:51:00,75.7,74.3,30.04,NNW,340,0.0,0.0,96,0.00, ,,-99.99,VWS V12.07,2013-09-06 06:51:00,
2013-09-06 02:56:00,76.2,74.9,30.04,NNW,340,0.0,0.0,96,0.00, ,,-99.99,VWS V12.07,2013-09-06 06:56:00,
2013-09-06 03:01:00,75.7,74.4,30.04,NNW,340,0.0,0.0,96,0.00, ,,-99.99,VWS V12.07,2013-09-06 07:01:00,
2013-09-06 03:06:00,76.0,74.7,30.04,NNW,340,0.0,0.0,96,0.00, ,,-99.99,VWS V12.07,2013-09-06 07:06:00,
2013-09-06 03:11:00,75.5,74.2,30.04,NNW,340,0.0,0.0,96,0.00, ,,-99.99,VWS V12.07,2013-09-06 07:11:00,
2013-09-06 03:16:00,75.7,74.4,30.04,NNW,340,0.0,0.0,96,0.00, ,,-99.99,VWS V12.07,2013-09-06 07:16:00,
2013-09-06 03:21:00,75.8,74.6,30.04,NNW,340,0.0,0.0,96,0.00, ,,-99.99,VWS V12.07,2013-09-06 07:21:00,
2013-09-06 03:26:00,75.9,74.6,30.04,NNW,340,0.0,0.0,96,0.00, ,,-99.99,VWS V12.07,2013-09-06 07:26:00,
2013-09-06 03:31:00,75.8,74.6,30.04,NNW,340,0.0,0.0,96,0.00, ,,-99.99,VWS V12.07,2013-09-06 07:31:00,
2013-09-06 03:36:00,75.4,74.2,30.04,NNW,340,0.0,0.0,96,0.00, ,,-99.99,VWS V12.07,2013-09-06 07:36:00,
2013-09-06 03:41:00,75.0,73.8,30.04,NNW,340,0.0,0.0,96,0.00, ,,-99.99,VWS V12.07,2013-09-06 07:41:00,
2013-09-06 03:46:00,75.1,74.1,30.05,NNW,340,0.0,0.0,97,0.00, ,,-99.99,VWS V12.07,2013-09-06 07:46:00,
2013-09-06 03:51:00,75.2,74.2,30.04,NNW,340,0.0,0.0,97,0.00, ,,-99.99,VWS V12.07,2013-09-06 07:51:00,
2013-09-06 03:56:00,75.3,74.4,30.04,NNW,340,0.0,0.0,97,0.00, ,,-99.99,VWS V12.07,2013-09-06 07:56:00,
2013-09-06 04:01:00,75.1,74.1,30.04,NNW,340,0.0,0.0,97,0.00, ,,-99.99,VWS V12.07,2013-09-06 08:01:00,
2013-09-06 04:06:00,75.2,74.3,30.04,NNW,340,0.0,0.0,97,0.00, ,,-99.99,VWS V12.07,2013-09-06 08:06:00,
2013-09-06 04:11:00,75.0,74.1,30.04,NNW,340,0.0,0.0,97,0.00, ,,-99.99,VWS V12.07,2013-09-06 08:11:00,
2013-09-06 04:16:00,75.1,74.1,30.04,NNW,340,0.0,0.0,97,0.00, ,,-99.99,VWS V12.07,2013-09-06 08:16:00,
2013-09-06 04:21:00,75.0,74.1,30.04,NNW,340,0.0,0.0,97,0.00, ,,-99.99,VWS V12.07,2013-09-06 08:21:00,
2013-09-06 04:26:00,74.7,73.8,30.04,NNW,340,0.0,0.0,97,0.00, ,,-99.99,VWS V12.07,2013-09-06 08:26:00,
2013-09-06 04:31:00,74.8,73.9,30.04,NNW,340,0.0,0.0,97,0.00, ,,-99.99,VWS V12.07,2013-09-06 08:31:00,
2013-09-06 04:36:00,74.6,73.7,30.04,NNW,340,0.0,0.0,97,0.00, ,,-99.99,VWS V12.07,2013-09-06 08:36:00,
2013-09-06 04:41:00,74.5,73.6,30.04,NNW,340,0.0,0.0,97,0.00, ,,-99.99,VWS V12.07,2013-09-06 08:41:00,
2013-09-06 04:46:00,74.5,73.6,30.04,NNW,340,0.0,0.0,97,0.00, ,,-99.99,VWS V12.07,2013-09-06 08:46:00,
2013-09-06 04:51:00,74.5,73.5,30.05,NNW,340,0.0,0.0,97,0.00, ,,-99.99,VWS V12.07,2013-09-06 08:51:00,
2013-09-06 04:56:00,74.0,73.1,30.05,NNW,340,0.0,0.0,97,0.00, ,,-99.99,VWS V12.07,2013-09-06 08:56:00,
2013-09-06 05:01:00,73.7,72.7,30.04,North,358,7.7,8.6,97,0.00, ,,-99.99,VWS V12.07,2013-09-06 09:01:00,
2013-09-06 05:06:00,73.6,72.5,30.05,NNW,347,7.0,9.9,96,0.00, ,,-99.99,VWS V12.07,2013-09-06 09:06:00,
2013-09-06 05:11:00,73.6,72.5,30.05,NNW,337,5.7,9.9,96,0.00, ,,-99.99,VWS V12.07,2013-09-06 09:11:00,
2013-09-06 05:16:00,73.8,72.7,30.05,NNW,337,0.0,9.9,96,0.00, ,,-99.99,VWS V12.07,2013-09-06 09:16:00,
2013-09-06 05:21:00,73.7,72.5,30.05,North,358,1.9,6.4,96,0.00, ,,-99.99,VWS V12.07,2013-09-06 09:21:00,
2013-09-06 05:26:00,74.0,72.7,30.05,NNW,346,0.0,8.5,96,0.00, ,,-99.99,VWS V12.07,2013-09-06 09:26:00,
2013-09-06 05:31:00,73.9,72.4,30.05,NNW,327,0.0,8.5,95,0.00, ,,-99.99,VWS V12.07,2013-09-06 09:31:00,
2013-09-06 05:36:00,73.4,71.8,30.05,NNW,341,0.0,8.5,95,0.00, ,,-99.99,VWS V12.07,2013-09-06 09:36:00,
2013-09-06 05:41:00,73.8,72.2,30.05,NNW,341,0.0,0.0,95,0.00, ,,-99.99,VWS V12.07,2013-09-06 09:41:00,
2013-09-06 05:46:00,73.9,72.2,30.05,NNW,341,0.0,0.0,94,0.00, ,,-99.99,VWS V12.07,2013-09-06 09:46:00,
2013-09-06 05:51:00,73.9,72.1,30.05,NNW,341,0.0,0.0,94,0.00, ,,-99.99,VWS V12.07,2013-09-06 09:51:00,
2013-09-06 05:56:00,73.9,72.2,30.05,NNW,341,0.0,0.0,94,0.00, ,,-99.99,VWS V12.07,2013-09-06 09:56:00,
2013-09-06 06:01:00,73.5,71.7,30.06,NNW,341,0.0,0.0,94,0.00, ,,-99.99,VWS V12.07,2013-09-06 10:01:00,
2013-09-06 06:06:00,73.7,71.8,30.06,NNW,341,0.0,0.0,94,0.00, ,,-99.99,VWS V12.07,2013-09-06 10:06:00,
2013-09-06 06:11:00,73.7,71.7,30.05,NNW,341,0.0,0.0,93,0.00, ,,-99.99,VWS V12.07,2013-09-06 10:11:00,
2013-09-06 06:16:00,73.6,71.6,30.06,NNW,341,0.0,0.0,94,0.00, ,,-99.99,VWS V12.07,2013-09-06 10:16:00,
2013-09-06 06:21:00,73.6,71.4,30.05,NNW,333,3.4,8.1,93,0.00, ,,-99.99,VWS V12.07,2013-09-06 10:21:00,
2013-09-06 06:26:00,73.9,71.8,30.06,NNW,343,7.8,11.8,93,0.00, ,,-99.99,VWS V12.07,2013-09-06 10:26:00,
2013-09-06 06:31:00,73.8,71.7,30.06,NNW,337,9.8,11.8,93,0.00, ,,-99.99,VWS V12.07,2013-09-06 10:31:00,
2013-09-06 06:36:00,73.5,71.3,30.06,NNW,348,8.0,11.9,93,0.00, ,,-99.99,VWS V12.07,2013-09-06 10:36:00,
2013-09-06 06:41:00,73.4,71.3,30.06,North,351,7.4,10.7,93,0.00, ,,-99.99,VWS V12.07,2013-09-06 10:41:00,
2013-09-06 06:46:00,73.5,71.5,30.06,NNE,12,5.6,11.6,94,0.00, ,,-99.99,VWS V12.07,2013-09-06 10:46:00,
2013-09-06 06:51:00,73.1,71.1,30.07,NNW,348,8.5,12.9,94,0.00, ,,-99.99,VWS V12.07,2013-09-06 10:51:00,
2013-09-06 06:56:00,73.4,71.6,30.06,North,4,9.4,12.9,94,0.00, ,,-99.99,VWS V12.07,2013-09-06 10:56:00,
2013-09-06 07:01:00,73.5,71.7,30.07,North,11,8.3,10.3,94,0.00, ,,-99.99,VWS V12.07,2013-09-06 11:01:00,
2013-09-06 07:06:00,73.7,71.9,30.06,NNE,19,7.4,11.4,94,0.00, ,,-99.99,VWS V12.07,2013-09-06 11:06:00,
2013-09-06 07:11:00,73.8,71.9,30.07,NNE,19,7.3,12.2,94,0.00, ,,-99.99,VWS V12.07,2013-09-06 11:11:00,
2013-09-06 07:16:00,73.5,71.8,30.07,North,360,9.3,14.9,94,0.00, ,,-99.99,VWS V12.07,2013-09-06 11:16:00,
2013-09-06 07:21:00,73.1,71.4,30.07,NNE,12,8.1,12.7,94,0.00, ,,-99.99,VWS V12.07,2013-09-06 11:21:00,
2013-09-06 07:27:00,73.7,72.1,30.07,North,5,8.7,12.7,95,0.00, ,,-99.99,VWS V12.07,2013-09-06 11:27:00,
2013-09-06 07:32:00,73.9,72.3,30.07,NNW,347,11.4,13.2,95,0.00, ,,-99.99,VWS V12.07,2013-09-06 11:32:00,
2013-09-06 07:37:00,73.9,72.3,30.07,NNW,344,9.6,13.8,95,0.00, ,,-99.99,VWS V12.07,2013-09-06 11:37:00,
2013-09-06 07:42:00,74.1,72.5,30.07,North,355,6.5,10.6,95,0.00, ,,-99.99,VWS V12.07,2013-09-06 11:42:00,
2013-09-06 07:47:00,73.9,72.3,30.07,North,355,7.5,13.2,95,0.00, ,,-99.99,VWS V12.07,2013-09-06 11:47:00,
2013-09-06 07:52:00,73.5,71.9,30.06,North,358,6.4,13.2,95,0.00, ,,-99.99,VWS V12.07,2013-09-06 11:52:00,
2013-09-06 07:57:00,74.1,72.4,30.08,North,360,8.9,13.2,94,0.00, ,,-99.99,VWS V12.07,2013-09-06 11:57:00,
2013-09-06 08:02:00,74.2,72.6,30.06,NW,318,8.6,10.8,95,0.00, ,,-99.99,VWS V12.07,2013-09-06 12:02:00,
2013-09-06 08:07:00,74.2,72.7,30.05,North,350,8.0,12.2,95,0.00, ,,-99.99,VWS V12.07,2013-09-06 12:07:00,
2013-09-06 08:12:00,74.7,73.2,30.08,NNW,347,9.4,13.9,95,0.00, ,,-99.99,VWS V12.07,2013-09-06 12:12:00,
2013-09-06 08:17:00,74.4,72.9,30.06,North,351,8.3,13.9,95,0.00, ,,-99.99,VWS V12.07,2013-09-06 12:17:00,
2013-09-06 08:22:00,74.1,72.6,30.05,NW,320,9.8,10.9,95,0.00, ,,-99.99,VWS V12.07,2013-09-06 12:22:00,
2013-09-06 08:27:00,75.0,73.5,30.02,North,351,9.9,13.1,95,0.00, ,,-99.99,VWS V12.07,2013-09-06 12:27:00,
2013-09-06 08:32:00,75.1,73.6,30.00,NNW,336,9.6,13.5,95,0.00, ,,-99.99,VWS V12.07,2013-09-06 12:32:00,
2013-09-06 08:37:00,73.6,72.2,30.05,North,8,4.7,13.5,95,0.00, ,,-99.99,VWS V12.07,2013-09-06 12:37:00,
2013-09-06 08:42:00,74.1,72.5,29.64,NE,39,6.2,10.7,95,0.00, ,,-99.99,VWS V12.07,2013-09-06 12:42:00,
2013-09-06 08:47:00,75.0,73.3,29.48,North,355,8.5,10.9,95,0.00, ,,-99.99,VWS V12.07,2013-09-06 12:47:00,
2013-09-06 08:52:00,75.0,73.4,28.08,North,360,7.5,11.2,95,0.00, ,,-99.99,VWS V12.07,2013-09-06 12:52:00,
2013-09-06 08:57:00,75.0,73.4,29.18,North,1,7.4,11.2,95,0.00, ,,-99.99,VWS V12.07,2013-09-06 12:57:00,
2013-09-06 09:02:00,75.0,73.3,30.39,NNE,25,8.3,11.1,95,0.00, ,,-99.99,VWS V12.07,2013-09-06 13:02:00,
2013-09-06 09:07:00,75.0,73.3,29.17,NNE,25,7.3,11.1,94,0.00, ,,-99.99,VWS V12.07,2013-09-06 13:07:00,
2013-09-06 09:12:00,75.0,73.2,30.02,North,1,8.0,11.4,94,0.00, ,,-99.99,VWS V12.07,2013-09-06 13:12:00,
2013-09-06 09:17:00,75.0,73.2,28.66,NNW,346,9.3,11.4,94,0.00, ,,-99.99,VWS V12.07,2013-09-06 13:17:00,
2013-09-06 09:22:00,75.0,73.2,27.46,North,353,7.0,11.6,94,0.00, ,,-99.99,VWS V12.07,2013-09-06 13:22:00,
2013-09-06 09:27:00,75.0,73.2,28.79,North,4,8.0,11.6,94,0.00, ,,-99.99,VWS V12.07,2013-09-06 13:27:00,
2013-09-06 09:32:00,75.0,73.1,28.45,North,7,7.6,12.6,94,0.00, ,,-99.99,VWS V12.07,2013-09-06 13:32:00,
2013-09-06 09:37:00,75.0,73.0,28.20,North,5,7.4,13.4,93,0.00, ,,-99.99,VWS V12.07,2013-09-06 13:37:00,
2013-09-06 09:42:00,75.0,72.6,27.61,North,4,11.9,13.8,92,0.00, ,,-99.99,VWS V12.07,2013-09-06 13:42:00,
2013-09-06 09:47:00,75.0,72.4,29.07,North,10,12.1,15.7,92,0.00, ,,-99.99,VWS V12.07,2013-09-06 13:47:00,
2013-09-06 09:52:00,75.0,72.2,25.26,NNE,28,11.4,16.9,91,0.00, ,,-99.99,VWS V12.07,2013-09-06 13:52:00,
2013-09-06 09:57:00,75.0,72.2,24.59,NNE,29,7.2,16.9,91,0.00, ,,-99.99,VWS V12.07,2013-09-06 13:57:00,
2013-09-06 10:02:00,75.0,71.7,25.46,NE,36,6.8,13.5,90,0.00, ,,-99.99,VWS V12.07,2013-09-06 14:02:00,
2013-09-06 10:07:00,75.0,71.2,27.82,NNE,15,12.3,14.7,88,0.00, ,,-99.99,VWS V12.07,2013-09-06 14:07:00,
2013-09-06 10:12:00,75.0,70.4,25.67,North,1,6.8,15.7,86,0.00, ,,-99.99,VWS V12.07,2013-09-06 14:12:00,
2013-09-06 10:17:00,75.0,70.2,21.18,North,7,9.4,17.1,85,0.00, ,,-99.99,VWS V12.07,2013-09-06 14:17:00,
2013-09-06 10:22:00,75.0,70.2,26.64,North,353,8.6,13.4,85,0.00, ,,-99.99,VWS V12.07,2013-09-06 14:22:00,
2013-09-06 10:27:00,75.0,69.2,21.66,North,5,12.0,17.9,82,0.00, ,,-99.99,VWS V12.07,2013-09-06 14:27:00,
2013-09-06 10:32:00,75.0,69.8,25.21,North,355,14.2,20.1,84,0.00, ,,-99.99,VWS V12.07,2013-09-06 14:32:00,
2013-09-06 10:37:00,75.0,69.8,19.85,NE,35,6.0,20.1,84,0.00, ,,-99.99,VWS V12.07,2013-09-06 14:37:00,
2013-09-06 10:42:00,75.0,69.2,24.24,NNW,347,8.1,19.4,82,0.00, ,,-99.99,VWS V12.07,2013-09-06 14:42:00,
2013-09-06 10:47:00,75.0,68.9,26.87,North,357,13.1,19.4,81,0.00, ,,-99.99,VWS V12.07,2013-09-06 14:47:00,
2013-09-06 10:52:00,75.0,68.7,23.08,North,355,11.8,19.4,81,0.00, ,,-99.99,VWS V12.07,2013-09-06 14:52:00,
2013-09-06 10:57:00,75.0,68.6,21.04,NNE,12,14.2,19.4,80,0.00, ,,-99.99,VWS V12.07,2013-09-06 14:57:00,
2013-09-06 11:02:00,75.0,66.6,16.17,NE,39,10.7,15.9,75,0.00, ,,-99.99,VWS V12.07,2013-09-06 15:02:00,
2013-09-06 11:07:00,75.0,65.8,22.39,ENE,62,15.0,17.0,73,0.00, ,,-99.99,VWS V12.07,2013-09-06 15:07:00,
2013-09-06 11:12:00,75.0,65.8,20.73,ENE,66,12.4,18.5,73,0.00, ,,-99.99,VWS V12.07,2013-09-06 15:12:00,
2013-09-06 11:17:00,75.0,66.8,25.94,NE,52,16.2,19.4,76,0.00, ,,-99.99,VWS V12.07,2013-09-06 15:17:00,
2013-09-06 11:22:00,75.0,66.8,19.18,ENE,70,14.1,16.9,76,0.00, ,,-99.99,VWS V12.07,2013-09-06 15:22:00,
2013-09-06 11:27:00,75.0,66.3,19.60,East,94,15.0,16.9,74,0.00, ,,-99.99,VWS V12.07,2013-09-06 15:27:00,
2013-09-06 11:33:00,75.0,67.2,19.60,ESE,116,10.5,16.9,77,0.00, ,,-99.99,VWS V12.07,2013-09-06 15:33:00,
2013-09-06 11:38:00,75.0,67.2,19.60,ESE,105,7.6,16.9,77,0.00, ,,-99.99,VWS V12.07,2013-09-06 15:38:00,
2013-09-06 11:43:00,75.0,67.1,19.60,ENE,78,8.0,9.3,76,0.00, ,,-99.99,VWS V12.07,2013-09-06 15:43:00,
2013-09-06 11:48:00,75.0,67.0,19.60,NE,39,0.0,10.7,76,0.12, ,,-99.99,VWS V12.07,2013-09-06 15:48:00,
2013-09-06 11:53:00,149.5,99.9,19.60,NE,39,0.0,10.7,80,0.20, ,,-99.99,VWS V12.07,2013-09-06 15:53:00,
2013-09-06 11:58:00,149.5,99.9,19.60,NE,35,17.8,26.5,81,0.48, ,,-99.99,VWS V12.07,2013-09-06 15:58:00,
2013-09-06 12:03:00,149.5,99.9,19.60,ENE,78,5.0,21.6,85,0.95, ,,-99.99,VWS V12.07,2013-09-06 16:03:00,
2013-09-06 12:08:00,149.5,99.9,19.60,SSE,152,6.3,21.6,90,1.15, ,,-99.99,VWS V12.07,2013-09-06 16:08:00,
2013-09-06 12:13:00,149.5,99.9,19.60,SW,216,4.9,21.6,90,1.15, ,,-99.99,VWS V12.07,2013-09-06 16:13:00,
2013-09-06 12:18:00,149.5,99.9,19.60,South,175,0.0,21.6,90,1.15, ,,-99.99,VWS V12.07,2013-09-06 16:18:00,
2013-09-06 12:23:00,149.5,99.9,19.60,SW,233,6.5,7.3,91,1.15, ,,-99.99,VWS V12.07,2013-09-06 16:23:00,
2013-09-06 12:28:00,149.5,99.9,19.60,South,191,0.0,7.3,90,1.15, ,,-99.99,VWS V12.07,2013-09-06 16:28:00,
2013-09-06 12:33:00,149.5,99.9,19.60,South,191,0.0,7.3,90,1.15, ,,-99.99,VWS V12.07,2013-09-06 16:33:00,
2013-09-06 12:38:00,149.5,99.9,19.60,South,191,0.0,7.3,90,1.15, ,,-99.99,VWS V12.07,2013-09-06 16:38:00,
2013-09-06 12:43:00,149.5,99.9,19.60,South,191,0.0,0.0,91,1.15, ,,-99.99,VWS V12.07,2013-09-06 16:43:00,
2013-09-06 12:48:00,149.5,99.9,19.60,South,191,0.0,0.0,91,1.15, ,,-99.99,VWS V12.07,2013-09-06 16:48:00,
2013-09-06 13:12:00,13.2,9.8,0.00,WNW,288,4.6,7.7,86,0.56, ,,-99.99,VWS V12.07,2013-09-06 17:12:00,
2013-09-06 13:17:00,13.2,9.8,0.00,North,351,6.0,8.4,86,0.61, ,,-99.99,VWS V12.07,2013-09-06 17:17:00,
2013-09-06 13:22:00,13.2,10.2,0.00,NNW,330,0.0,0.0,87,0.12, ,,-99.99,VWS V12.07,2013-09-06 17:22:00,
2013-09-06 13:27:00,13.2,10.1,0.00,NNW,330,0.0,0.0,87,0.12, ,,-99.99,VWS V12.07,2013-09-06 17:27:00,
2013-09-06 13:33:00,13.2,10.0,0.00,NNW,330,0.0,0.0,87,0.12, ,,-99.99,VWS V12.07,2013-09-06 17:33:00,
2013-09-06 13:38:00,13.2,9.3,0.00,ENE,57,5.4,6.6,84,0.12, ,,-99.99,VWS V12.07,2013-09-06 17:38:00,
2013-09-06 13:43:00,13.2,7.8,0.00,NE,38,3.4,8.2,79,0.12, ,,-99.99,VWS V12.07,2013-09-06 17:43:00,
2013-09-06 13:48:00,13.2,7.2,0.00,NE,45,1.9,8.2,76,0.12, ,,-99.99,VWS V12.07,2013-09-06 17:48:00,
2013-09-06 13:53:00,13.2,6.6,0.00,ENE,67,5.7,8.2,74,0.12, ,,-99.99,VWS V12.07,2013-09-06 17:53:00,
2013-09-06 13:58:00,13.2,6.5,0.00,ENE,74,5.5,10.1,74,0.12, ,,-99.99,VWS V12.07,2013-09-06 17:58:00,
2013-09-06 14:03:00,13.2,7.0,0.00,East,91,3.5,10.5,76,0.12, ,,-99.99,VWS V12.07,2013-09-06 18:03:00,
2013-09-06 14:08:00,13.2,6.9,0.00,ENE,67,8.2,10.5,76,0.12, ,,-99.99,VWS V12.07,2013-09-06 18:08:00,
2013-09-06 14:13:00,13.2,6.9,0.00,East,80,7.1,14.5,76,0.12, ,,-99.99,VWS V12.07,2013-09-06 18:13:00,
2013-09-06 14:18:00,13.2,6.7,0.00,ENE,63,10.7,14.5,75,0.12, ,,-99.99,VWS V12.07,2013-09-06 18:18:00,
2013-09-06 14:23:00,13.2,7.0,0.00,East,88,5.5,10.4,76,0.00, ,,-99.99,VWS V12.07,2013-09-06 18:23:00,
2013-09-06 14:28:00,13.2,6.8,0.00,ESE,104,4.6,10.9,75,0.00, ,,-99.99,VWS V12.07,2013-09-06 18:28:00,
2013-09-06 14:33:00,13.2,6.7,0.00,ENE,77,9.0,13.5,75,0.00, ,,-99.99,VWS V12.07,2013-09-06 18:33:00,
2013-09-06 14:38:00,13.2,6.7,0.00,ENE,64,17.6,19.4,75,0.00, ,,-99.99,VWS V12.07,2013-09-06 18:38:00,
2013-09-06 14:43:00,13.2,7.0,0.00,ENE,70,12.5,17.1,76,0.00, ,,-99.99,VWS V12.07,2013-09-06 18:43:00,
2013-09-06 14:48:00,13.2,6.8,0.00,ENE,64,15.7,19.4,75,0.00, ,,-99.99,VWS V12.07,2013-09-06 18:48:00,
2013-09-06 14:53:00,13.2,6.9,0.00,ESE,102,10.5,19.4,75,0.00, ,,-99.99,VWS V12.07,2013-09-06 18:53:00,
2013-09-06 14:58:00,13.2,6.6,0.00,ENE,59,14.7,19.4,74,0.00, ,,-99.99,VWS V12.07,2013-09-06 18:58:00,
2013-09-06 15:03:00,13.2,6.8,0.00,ENE,59,13.7,17.0,75,0.00, ,,-99.99,VWS V12.07,2013-09-06 19:03:00,
2013-09-06 15:08:00,13.2,6.8,0.00,ENE,59,14.7,19.9,75,0.00, ,,-99.99,VWS V12.07,2013-09-06 19:08:00,
2013-09-06 15:13:00,13.2,6.8,0.00,East,81,9.9,19.9,75,0.00, ,,-99.99,VWS V12.07,2013-09-06 19:13:00,
2013-09-06 15:18:00,13.2,6.4,0.00,ENE,73,13.9,20.1,74,0.00, ,,-99.99,VWS V12.07,2013-09-06 19:18:00,
2013-09-06 15:23:00,13.2,6.3,0.00,ENE,67,17.0,19.5,73,0.00, ,,-99.99,VWS V12.07,2013-09-06 19:23:00,
2013-09-06 15:28:00,13.2,6.3,0.00,ENE,66,17.3,21.1,73,0.00, ,,-99.99,VWS V12.07,2013-09-06 19:28:00,
2013-09-06 15:33:00,13.2,6.3,0.00,NE,50,16.7,21.3,73,0.00, ,,-99.99,VWS V12.07,2013-09-06 19:33:00,
2013-09-06 15:38:00,13.2,6.3,0.00,ENE,63,13.7,21.8,73,0.00, ,,-99.99,VWS V12.07,2013-09-06 19:38:00,
2013-09-06 15:43:00,13.2,6.5,0.00,ENE,71,11.3,15.5,74,0.00, ,,-99.99,VWS V12.07,2013-09-06 19:43:00,
2013-09-06 15:48:00,13.2,6.7,0.00,ENE,60,12.7,15.5,75,0.00, ,,-99.99,VWS V12.07,2013-09-06 19:48:00,
2013-09-06 15:53:00,13.2,6.3,0.00,ENE,71,15.1,18.0,73,0.00, ,,-99.99,VWS V12.07,2013-09-06 19:53:00,
2013-09-06 15:58:00,13.2,6.5,0.00,ESE,108,8.9,18.2,74,0.00, ,,-99.99,VWS V12.07,2013-09-06 19:58:00,
2013-09-06 16:03:00,13.2,6.7,0.00,ENE,76,10.9,14.7,75,0.00, ,,-99.99,VWS V12.07,2013-09-06 20:03:00,
2013-09-06 16:08:00,13.2,6.6,0.00,East,91,10.5,15.5,74,0.00, ,,-99.99,VWS V12.07,2013-09-06 20:08:00,
2013-09-06 16:13:00,13.2,6.7,0.00,East,100,11.2,15.5,75,0.00, ,,-99.99,VWS V12.07,2013-09-06 20:13:00,
2013-09-06 16:18:00,13.2,6.5,0.00,ESE,111,9.3,15.8,74,0.00, ,,-99.99,VWS V12.07,2013-09-06 20:18:00,
2013-09-06 16:23:00,13.2,6.2,0.00,ENE,63,12.7,15.3,73,0.00, ,,-99.99,VWS V12.07,2013-09-06 20:23:00,
2013-09-06 16:28:00,13.2,6.7,0.00,East,92,8.5,15.3,75,0.00, ,,-99.99,VWS V12.07,2013-09-06 20:28:00,
2013-09-06 16:33:00,13.2,6.6,0.00,East,90,13.1,15.3,74,0.00, ,,-99.99,VWS V12.07,2013-09-06 20:33:00,
2013-09-06 16:38:00,13.2,6.3,0.00,NE,52,16.3,18.8,73,0.00, ,,-99.99,VWS V12.07,2013-09-06 20:38:00,
2013-09-06 20:13:00,75.3,69.0,0.00,NE,40,12.2,18.9,81,0.00, ,,-99.99,VWS V12.07,2013-09-07 00:13:00,
2013-09-06 20:18:00,75.1,68.5,0.00,ENE,76,9.9,20.1,80,0.00, ,,-99.99,VWS V12.07,2013-09-07 00:18:00,
2013-09-06 20:23:00,75.2,68.8,0.00,NE,42,10.8,19.9,80,0.00, ,,-99.99,VWS V12.07,2013-09-07 00:23:00,
2013-09-06 20:28:00,75.2,68.5,0.00,East,94,8.5,19.9,80,0.00, ,,-99.99,VWS V12.07,2013-09-07 00:28:00,
2013-09-06 20:33:00,75.0,68.6,0.00,NE,45,9.1,20.6,80,0.00, ,,-99.99,VWS V12.07,2013-09-07 00:33:00,
2013-09-06 20:38:00,75.4,68.9,0.00,NE,43,11.2,20.6,80,0.00, ,,-99.99,VWS V12.07,2013-09-07 00:38:00,
2013-09-06 20:43:00,75.1,68.7,0.00,East,90,8.1,17.3,80,0.00, ,,-99.99,VWS V12.07,2013-09-07 00:43:00,
2013-09-06 20:48:00,74.9,68.3,0.00,North,11,16.6,19.0,80,0.00, ,,-99.99,VWS V12.07,2013-09-07 00:48:00,
2013-09-06 20:53:00,74.4,68.0,0.00,ENE,74,9.8,20.5,80,0.00, ,,-99.99,VWS V12.07,2013-09-07 00:53:00,
2013-09-06 20:58:00,74.7,68.2,0.00,ENE,62,12.4,20.5,80,0.00, ,,-99.99,VWS V12.07,2013-09-07 00:58:00,
2013-09-06 21:03:00,74.7,68.2,0.00,East,94,10.4,19.8,80,0.00, ,,-99.99,VWS V12.07,2013-09-07 01:03:00,
2013-09-06 21:08:00,74.8,68.3,0.00,ENE,60,8.6,20.6,80,0.00, ,,-99.99,VWS V12.07,2013-09-07 01:08:00,
2013-09-06 21:13:00,74.0,67.4,0.00,East,87,12.4,20.6,80,0.00, ,,-99.99,VWS V12.07,2013-09-07 01:13:00,
2013-09-06 21:18:00,74.8,68.1,0.00,East,84,8.3,20.6,80,0.00, ,,-99.99,VWS V12.07,2013-09-07 01:18:00,
2013-09-06 21:23:00,74.4,67.7,0.00,ENE,67,9.9,17.3,80,0.00, ,,-99.99,VWS V12.07,2013-09-07 01:23:00,
2013-09-06 21:28:00,74.9,68.1,0.00,NE,42,5.6,18.5,79,0.00, ,,-99.99,VWS V12.07,2013-09-07 01:28:00,
2013-09-06 21:33:00,74.7,67.8,0.00,ENE,64,13.5,18.5,79,0.00, ,,-99.99,VWS V12.07,2013-09-07 01:33:00,
2013-09-06 21:38:00,75.2,68.3,0.00,East,81,8.2,18.5,79,0.00, ,,-99.99,VWS V12.07,2013-09-07 01:38:00,
2013-09-06 21:43:00,74.9,68.2,0.00,East,81,9.0,17.4,80,0.00, ,,-99.99,VWS V12.07,2013-09-07 01:43:00,
2013-09-06 21:48:00,74.6,67.9,0.00,East,95,10.9,17.6,80,0.00, ,,-99.99,VWS V12.07,2013-09-07 01:48:00,
2013-09-06 21:54:00,74.9,67.9,0.00,ESE,107,10.3,17.6,79,0.00, ,,-99.99,VWS V12.07,2013-09-07 01:54:00,
2013-09-06 21:59:00,74.4,67.5,0.00,ENE,66,5.8,17.6,79,0.00, ,,-99.99,VWS V12.07,2013-09-07 01:59:00,
2013-09-06 22:04:00,73.9,67.3,0.00,NE,36,9.1,14.5,80,0.00, ,,-99.99,VWS V12.07,2013-09-07 02:04:00,
2013-09-06 22:09:00,74.6,67.9,0.00,ENE,64,13.8,17.0,80,0.00, ,,-99.99,VWS V12.07,2013-09-07 02:09:00,
2013-09-06 22:14:00,74.5,67.7,0.00,East,95,12.1,17.6,79,0.00, ,,-99.99,VWS V12.07,2013-09-07 02:14:00,
2013-09-06 22:19:00,73.6,66.7,0.00,East,101,10.7,17.6,79,0.00, ,,-99.99,VWS V12.07,2013-09-07 02:19:00,
2013-09-06 22:24:00,74.4,67.5,0.00,East,83,8.8,14.3,79,0.00, ,,-99.99,VWS V12.07,2013-09-07 02:24:00,
2013-09-06 22:29:00,74.9,68.0,0.00,ENE,76,9.7,14.3,79,0.00, ,,-99.99,VWS V12.07,2013-09-07 02:29:00,
2013-09-06 22:34:00,74.4,67.4,0.00,ESE,102,7.2,14.3,79,0.00, ,,-99.99,VWS V12.07,2013-09-07 02:34:00,
2013-09-06 22:39:00,74.7,67.5,0.00,ENE,59,7.4,17.6,78,0.00, ,,-99.99,VWS V12.07,2013-09-07 02:39:00,
2013-09-06 22:44:00,74.1,66.8,0.00,NE,45,14.0,16.2,78,0.00, ,,-99.99,VWS V12.07,2013-09-07 02:44:00,
2013-09-06 22:49:00,74.4,67.3,0.00,ENE,69,5.5,16.2,79,0.00, ,,-99.99,VWS V12.07,2013-09-07 02:49:00,
2013-09-06 22:54:00,74.6,67.4,0.00,ENE,77,5.3,16.2,78,0.00, ,,-99.99,VWS V12.07,2013-09-07 02:54:00,
2013-09-06 22:59:00,73.9,66.5,0.00,NNE,32,12.2,16.2,78,0.00, ,,-99.99,VWS V12.07,2013-09-07 02:59:00,
2013-09-06 23:04:00,73.7,66.6,0.00,ENE,70,10.7,15.8,78,0.00, ,,-99.99,VWS V12.07,2013-09-07 03:04:00,
2013-09-06 23:09:00,74.6,67.7,0.00,ENE,60,0.0,17.7,79,0.00, ,,-99.99,VWS V12.07,2013-09-07 03:09:00,
2013-09-06 23:14:00,74.5,67.6,0.00,NNE,24,7.8,17.7,79,0.00, ,,-99.99,VWS V12.07,2013-09-07 03:14:00,
2013-09-06 23:19:00,74.4,67.7,0.00,NNE,32,8.3,17.7,80,0.00, ,,-99.99,VWS V12.07,2013-09-07 03:19:00,
2013-09-06 23:24:00,73.6,67.3,0.00,NNE,26,10.6,12.3,81,0.00, ,,-99.99,VWS V12.07,2013-09-07 03:24:00,
2013-09-06 23:29:00,73.6,67.4,0.00,North,11,14.0,15.0,81,0.00, ,,-99.99,VWS V12.07,2013-09-07 03:29:00,
2013-09-06 23:34:00,73.2,67.0,0.00,NNE,25,9.3,17.6,81,0.00, ,,-99.99,VWS V12.07,2013-09-07 03:34:00,
2013-09-06 23:39:00,72.7,66.7,0.00,North,1,8.6,17.6,81,0.00, ,,-99.99,VWS V12.07,2013-09-07 03:39:00,
2013-09-06 23:44:00,72.2,66.3,0.00,NNE,22,9.9,16.8,82,0.00, ,,-99.99,VWS V12.07,2013-09-07 03:44:00,
2013-09-06 23:49:00,72.8,66.6,0.00,North,1,9.5,17.1,81,0.00, ,,-99.99,VWS V12.07,2013-09-07 03:49:00,
2013-09-06 23:54:00,73.2,66.6,0.00,North,353,9.8,18.4,80,0.00, ,,-99.99,VWS V12.07,2013-09-07 03:54:00,
2013-09-06 23:59:00,73.5,66.7,0.00,ENE,63,8.8,18.4,79,0.00, ,,-99.99,VWS V12.07,2013-09-07 03:59:00,